createdAt,value
2019-01-09T00:33:13.347Z,34.6
2019-01-09T00:34:03.128Z,34.1
2019-01-09T00:34:54.067Z,33.3
2019-01-09T00:35:45.945Z,32.2
2019-01-09T00:36:33.550Z,30.9
2019-01-09T00:37:23.060Z,30
2019-01-09T00:38:13.716Z,29.3
2019-01-09T00:39:04.043Z,30.2
2019-01-09T00:39:53.050Z,32.4
2019-01-09T00:40:42.995Z,33.9
2019-01-09T00:41:34.242Z,34.7
2019-01-09T00:42:23.987Z,34.9
2019-01-09T00:43:14.357Z,34.9
2019-01-09T00:44:03.867Z,34.6
2019-01-09T00:44:55.119Z,33.9
2019-01-09T00:45:43.939Z,33.1
2019-01-09T00:46:34.972Z,32
2019-01-09T00:47:23.627Z,30.8
2019-01-09T00:48:14.529Z,29.9
2019-01-09T00:49:04.091Z,29.3
2019-01-09T00:49:54.938Z,28.8
2019-01-09T00:50:43.319Z,28.4
2019-01-09T00:51:34.286Z,28.8
2019-01-09T00:52:25.364Z,31.5
2019-01-09T00:53:14.634Z,33.2
2019-01-09T00:54:04.689Z,34.3
2019-01-09T00:54:55.002Z,34.6
2019-01-09T00:55:44.806Z,34.7
2019-01-09T00:56:35.337Z,34.3
2019-01-09T00:57:24.351Z,33.8
2019-01-09T00:58:15.873Z,32.8
2019-01-09T00:59:03.936Z,31.6
2019-01-09T00:59:55.309Z,30.5
2019-01-09T01:00:45.534Z,29.6
2019-01-09T01:01:35.422Z,29
2019-01-09T01:02:25.291Z,28.6
2019-01-09T01:03:15.423Z,29.5
2019-01-09T01:04:06.562Z,31.9
2019-01-09T01:04:55.651Z,33.5
2019-01-09T01:05:53.849Z,34.4
2019-01-09T01:06:35.458Z,34.8
2019-01-09T01:07:25.616Z,34.8
2019-01-09T01:08:16.443Z,34.6
2019-01-09T01:09:05.560Z,33.9
2019-01-09T01:09:56.330Z,33.1
2019-01-09T01:10:46.312Z,31.9
2019-01-09T01:11:35.802Z,30.8
2019-01-09T01:12:26.785Z,29.8
2019-01-09T01:13:14.820Z,29.1
2019-01-09T01:14:06.523Z,28.7
2019-01-09T01:14:56.095Z,31.4
2019-01-09T01:15:45.800Z,33.1
2019-01-09T01:16:36.992Z,34.3
2019-01-09T01:17:25.100Z,34.8
2019-01-09T01:18:17.303Z,34.9
2019-01-09T01:19:06.873Z,34.6
2019-01-09T01:19:57.460Z,34.1
2019-01-09T01:20:45.580Z,33.3
2019-01-09T01:21:37.037Z,32.3
2019-01-09T01:22:26.095Z,31
2019-01-09T01:23:17.349Z,30.1
2019-01-09T01:24:06.210Z,29.3
2019-01-09T01:24:56.999Z,28.8
2019-01-09T01:25:46.530Z,28.4
2019-01-09T01:26:36.574Z,30.8
2019-01-09T01:27:26.912Z,32.6
2019-01-09T01:28:17.482Z,33.9
2019-01-09T01:29:07.319Z,34.6
2019-01-09T01:29:57.085Z,34.7
2019-01-09T01:30:47.122Z,34.4
2019-01-09T01:31:37.169Z,33.9
2019-01-09T01:32:27.231Z,33.2
2019-01-09T01:33:17.834Z,32.1
2019-01-09T01:34:08.215Z,30.9
2019-01-09T01:34:58.304Z,29.9
2019-01-09T01:35:57.259Z,29.1
2019-01-09T01:36:37.571Z,28.6
2019-01-09T01:37:27.826Z,29.6
2019-01-09T01:38:17.658Z,32
2019-01-09T01:39:07.964Z,33.6
2019-01-09T01:39:58.901Z,34.5
2019-01-09T01:40:48.308Z,34.9
2019-01-09T01:41:38.374Z,34.9
2019-01-09T01:42:28.699Z,34.6
2019-01-09T01:43:18.496Z,34.1
2019-01-09T01:44:08.896Z,33.3
2019-01-09T01:44:58.591Z,32.3
2019-01-09T01:45:48.466Z,31.1
2019-01-09T01:46:37.691Z,30.1
2019-01-09T01:47:27.950Z,32.3
2019-01-09T01:48:17.763Z,33.9
2019-01-09T01:49:07.508Z,34.8
2019-01-09T01:49:58.956Z,35.1
2019-01-09T01:50:49.023Z,35.1
2019-01-09T01:51:39.051Z,34.7
2019-01-09T01:52:30.016Z,34
2019-01-09T01:53:18.976Z,33.1
2019-01-09T01:54:08.008Z,31.9
2019-01-09T01:54:59.943Z,30.8
2019-01-09T01:55:49.895Z,29.8
2019-01-09T01:56:39.443Z,29.2
2019-01-09T01:57:29.703Z,28.7
2019-01-09T01:58:18.140Z,28.4
2019-01-09T01:59:09.930Z,30.9
2019-01-09T01:59:59.428Z,32.9
2019-01-09T02:00:49.413Z,34.1
2019-01-09T02:01:40.063Z,34.7
2019-01-09T02:02:30.157Z,34.8
2019-01-09T02:03:19.575Z,34.6
2019-01-09T02:04:09.365Z,34.1
2019-01-09T02:04:59.957Z,33.4
2019-01-09T02:05:49.457Z,32.5
2019-01-09T02:06:39.277Z,31.4
2019-01-09T02:07:30.653Z,30.3
2019-01-09T02:08:20.429Z,29.4
2019-01-09T02:09:08.857Z,30.4
2019-01-09T02:10:00.645Z,32.6
2019-01-09T02:10:49.592Z,34
2019-01-09T02:11:38.477Z,34.8
2019-01-09T02:12:30.470Z,35
2019-01-09T02:13:19.690Z,35
2019-01-09T02:14:10.024Z,34.7
2019-01-09T02:15:00.355Z,34.1
2019-01-09T02:15:51.224Z,33.3
2019-01-09T02:16:40.809Z,32.3
2019-01-09T02:17:30.226Z,31.2
2019-01-09T02:18:20.026Z,30.2
2019-01-09T02:19:11.459Z,29.4
2019-01-09T02:20:00.428Z,31
2019-01-09T02:20:50.171Z,33
2019-01-09T02:21:41.203Z,34.3
2019-01-09T02:22:30.928Z,35.1
2019-01-09T02:23:20.909Z,35.2
2019-01-09T02:24:10.386Z,35.2
2019-01-09T02:25:01.309Z,34.9
2019-01-09T02:25:50.624Z,34.3
2019-01-09T02:26:40.576Z,33.5
2019-01-09T02:27:30.998Z,32.6
2019-01-09T02:28:21.803Z,31.4
2019-01-09T02:29:11.856Z,30.4
2019-01-09T02:30:01.437Z,29.6
2019-01-09T02:30:51.232Z,29.1
2019-01-09T02:31:42.207Z,31.2
2019-01-09T02:32:30.241Z,33.1
2019-01-09T02:33:21.761Z,34.1
2019-01-09T02:34:11.713Z,34.6
2019-01-09T02:35:01.613Z,34.7
2019-01-09T02:35:50.688Z,34.3
2019-01-09T02:36:42.380Z,33.7
2019-01-09T02:37:32.151Z,32.8
2019-01-09T02:38:22.272Z,31.6
2019-01-09T02:39:12.393Z,30.4
2019-01-09T02:40:02.793Z,29.6
2019-01-09T02:40:55.516Z,28.9
2019-01-09T02:41:41.954Z,28.6
2019-01-09T02:42:32.275Z,28.3
2019-01-09T02:43:21.455Z,31
2019-01-09T02:44:12.353Z,32.9
2019-01-09T02:45:03.375Z,34.2
2019-01-09T02:45:51.639Z,34.9
2019-01-09T02:46:42.320Z,35.1
2019-01-09T02:47:33.793Z,35.2
2019-01-09T02:48:22.685Z,34.8
2019-01-09T02:49:13.599Z,34.2
2019-01-09T02:50:02.581Z,33.5
2019-01-09T02:50:52.406Z,32.6
2019-01-09T02:51:41.220Z,31.5
2019-01-09T02:52:33.414Z,30.6
2019-01-09T02:53:22.694Z,31.3
2019-01-09T02:54:12.548Z,33.2
2019-01-09T02:55:03.561Z,34.4
2019-01-09T02:55:52.344Z,35
2019-01-09T02:56:43.190Z,35.1
2019-01-09T02:57:33.635Z,34.8
2019-01-09T02:58:23.855Z,34.3
2019-01-09T02:59:13.545Z,33.6
2019-01-09T03:00:04.063Z,32.6
2019-01-09T03:00:53.478Z,31.3
2019-01-09T03:01:43.056Z,30.3
2019-01-09T03:02:34.228Z,29.5
2019-01-09T03:03:23.929Z,28.9
2019-01-09T03:04:13.747Z,28.6
2019-01-09T03:05:03.867Z,29.4
2019-01-09T03:05:53.853Z,31.8
2019-01-09T03:06:44.119Z,33.4
2019-01-09T03:07:34.864Z,34.4
2019-01-09T03:08:24.686Z,34.8
2019-01-09T03:09:13.841Z,34.9
2019-01-09T03:10:04.443Z,34.5
2019-01-09T03:10:54.229Z,33.9
2019-01-09T03:11:45.084Z,33.1
2019-01-09T03:12:34.246Z,32.1
2019-01-09T03:13:24.038Z,31
2019-01-09T03:14:14.238Z,30.1
2019-01-09T03:15:04.752Z,29.5
2019-01-09T03:15:54.258Z,32.1
2019-01-09T03:16:44.467Z,33.7
2019-01-09T03:17:33.511Z,34.7
2019-01-09T03:18:24.361Z,35.1
2019-01-09T03:19:14.985Z,35.2
2019-01-09T03:20:04.364Z,34.9
2019-01-09T03:20:55.240Z,34.4
2019-01-09T03:21:45.245Z,33.8
2019-01-09T03:22:34.611Z,32.9
2019-01-09T03:23:25.352Z,31.8
2019-01-09T03:24:14.393Z,30.7
2019-01-09T03:25:05.496Z,29.9
2019-01-09T03:26:45.295Z,30
2019-01-09T03:27:34.132Z,32.3
2019-01-09T03:28:25.360Z,33.8
2019-01-09T03:29:15.077Z,34.7
2019-01-09T03:30:05.085Z,35
2019-01-09T03:30:55.897Z,35
2019-01-09T03:31:45.318Z,34.6
2019-01-09T03:32:35.933Z,34
2019-01-09T03:33:26.763Z,33.2
2019-01-09T03:34:15.407Z,32.1
2019-01-09T03:35:06.061Z,31.1
2019-01-09T03:35:56.072Z,30.1
2019-01-09T03:36:45.306Z,29.4
2019-01-09T03:37:35.702Z,28.9
2019-01-09T03:38:25.729Z,31.6
2019-01-09T03:39:16.588Z,33.3
2019-01-09T03:40:06.745Z,34.4
2019-01-09T03:40:56.426Z,34.8
2019-01-09T03:41:46.175Z,34.9
2019-01-09T03:42:34.741Z,34.6
2019-01-09T03:43:26.349Z,34.1
2019-01-09T03:44:16.434Z,33.3
2019-01-09T03:45:06.861Z,32.3
2019-01-09T03:45:56.449Z,31.1
2019-01-09T03:46:46.961Z,30.1
2019-01-09T03:47:35.769Z,29.4
2019-01-09T03:48:26.376Z,28.9
2019-01-09T03:49:16.934Z,29.9
2019-01-09T03:50:06.211Z,32.3
2019-01-09T03:50:57.086Z,33.7
2019-01-09T03:51:47.131Z,34.6
2019-01-09T03:52:37.318Z,34.8
2019-01-09T03:53:27.153Z,34.7
2019-01-09T03:54:17.026Z,34.2
2019-01-09T03:55:07.353Z,33.6
2019-01-09T03:55:56.926Z,32.6
2019-01-09T03:56:46.663Z,31.5
2019-01-09T03:57:37.898Z,30.4
2019-01-09T03:58:27.097Z,29.6
2019-01-09T03:59:16.378Z,29
2019-01-09T04:00:07.648Z,28.6
2019-01-09T04:00:57.507Z,30.7
2019-01-09T04:01:47.291Z,32.7
2019-01-09T04:02:38.147Z,34
2019-01-09T04:03:30.282Z,34.8
2019-01-09T04:04:17.818Z,34.9
2019-01-09T04:05:07.902Z,34.8
2019-01-09T04:05:58.357Z,34.3
2019-01-09T04:06:50.522Z,33.6
2019-01-09T04:07:37.388Z,32.8
2019-01-09T04:08:27.753Z,31.8
2019-01-09T04:09:18.374Z,30.7
2019-01-09T04:10:08.235Z,29.8
2019-01-09T04:10:57.655Z,29.1
2019-01-09T04:11:48.205Z,29.3
2019-01-09T04:12:38.624Z,31.9
2019-01-09T04:13:27.864Z,33.5
2019-01-09T04:14:18.184Z,34.4
2019-01-09T04:15:08.917Z,34.8
2019-01-09T04:15:58.612Z,34.7
2019-01-09T04:16:48.482Z,34.3
2019-01-09T04:17:39.179Z,33.7
2019-01-09T04:18:28.098Z,32.8
2019-01-09T04:19:18.139Z,31.8
2019-01-09T04:20:09.035Z,30.6
2019-01-09T04:20:58.874Z,29.7
2019-01-09T04:21:48.652Z,29.1
2019-01-09T04:22:39.199Z,28.6
2019-01-09T04:23:29.552Z,30.1
2019-01-09T04:24:17.959Z,32.3
2019-01-09T04:25:08.211Z,33.7
2019-01-09T04:25:59.466Z,34.6
2019-01-09T04:26:49.918Z,34.9
2019-01-09T04:27:37.897Z,34.9
2019-01-09T04:28:29.669Z,34.6
2019-01-09T04:29:20.242Z,34
2019-01-09T04:30:09.784Z,33.3
2019-01-09T04:31:00.365Z,32.3
2019-01-09T04:31:49.400Z,31.3
2019-01-09T04:32:39.184Z,30.3
2019-01-09T04:33:30.346Z,29.9
2019-01-09T04:34:20.102Z,32.4
2019-01-09T04:35:09.854Z,33.9
2019-01-09T04:35:59.663Z,34.7
2019-01-09T04:36:59.900Z,35
2019-01-09T04:37:39.906Z,34.8
2019-01-09T04:38:29.191Z,34.4
2019-01-09T04:39:20.077Z,33.8
2019-01-09T04:40:10.018Z,32.9
2019-01-09T04:40:59.896Z,31.8
2019-01-09T04:41:49.715Z,30.7
2019-01-09T04:42:41.154Z,29.8
2019-01-09T04:43:29.855Z,29.1
2019-01-09T04:44:20.671Z,28.7
2019-01-09T04:45:09.830Z,28.4
2019-01-09T05:02:31.016Z,33.5
2019-01-09T05:03:20.148Z,32.4
2019-01-09T05:04:11.064Z,31.4
2019-01-09T05:04:59.474Z,30.3
2019-01-09T05:05:51.389Z,29.6
2019-01-09T05:06:41.180Z,29
2019-01-09T05:07:31.547Z,29.8
2019-01-09T05:08:21.106Z,32.2
2019-01-09T05:09:11.622Z,33.7
2019-01-09T05:10:03.627Z,34.6
2019-01-09T05:10:51.993Z,34.9
2019-01-09T05:11:41.516Z,34.9
2019-01-09T05:12:31.617Z,34.5
2019-01-09T05:13:22.096Z,33.9
2019-01-09T05:14:11.681Z,33.1
2019-01-09T05:15:02.651Z,32.1
2019-01-09T05:15:52.076Z,31
2019-01-09T05:16:41.077Z,30.1
2019-01-09T05:17:31.913Z,29.3
2019-01-09T05:18:22.366Z,30.7
2019-01-09T05:19:11.526Z,32.8
2019-01-09T05:20:01.831Z,34.1
2019-01-09T05:20:51.904Z,34.8
2019-01-09T05:21:42.885Z,34.8
2019-01-09T05:22:31.926Z,34.6
2019-01-09T05:23:22.408Z,34.1
2019-01-09T05:24:11.843Z,33.4
2019-01-09T05:25:02.388Z,32.4
2019-01-09T05:25:52.118Z,31.3
2019-01-09T05:26:42.241Z,30.3
2019-01-09T05:27:32.381Z,29.4
2019-01-09T05:28:22.867Z,28.9
2019-01-09T05:29:12.377Z,28.4
2019-01-09T05:30:02.133Z,30.3
2019-01-09T05:30:52.913Z,32.4
2019-01-09T05:31:43.110Z,33.9
2019-01-09T05:32:32.618Z,34.7
2019-01-09T05:33:22.958Z,34.9
2019-01-09T05:34:12.479Z,34.8
2019-01-09T05:35:03.438Z,34.4
2019-01-09T05:35:52.610Z,33.8
2019-01-09T05:36:42.735Z,33.1
2019-01-09T05:37:33.022Z,32.1
2019-01-09T05:38:24.133Z,31
2019-01-09T05:39:14.054Z,30.1
2019-01-09T05:40:03.836Z,29.3
2019-01-09T05:40:53.709Z,31.7
2019-01-09T05:41:43.243Z,33.4
2019-01-09T05:42:34.398Z,34.5
2019-01-09T05:43:23.301Z,34.9
2019-01-09T05:44:13.664Z,35
2019-01-09T05:45:06.274Z,34.7
2019-01-09T05:45:52.967Z,34.1
2019-01-09T05:46:44.668Z,33.4
2019-01-09T05:47:33.961Z,32.5
2019-01-09T05:48:23.988Z,31.4
2019-01-09T05:49:13.776Z,30.4
2019-01-09T05:50:03.007Z,29.6
2019-01-09T05:50:55.372Z,29
2019-01-09T05:51:44.521Z,29
2019-01-09T05:52:33.211Z,31.6
2019-01-09T05:53:23.169Z,33.3
2019-01-09T05:54:14.418Z,34.4
2019-01-09T05:55:03.611Z,34.9
2019-01-09T05:55:53.369Z,35
2019-01-09T05:56:44.758Z,34.9
2019-01-09T05:57:34.489Z,34.4
2019-01-09T05:58:23.453Z,33.7
2019-01-09T05:59:15.180Z,32.8
2019-01-09T06:00:05.183Z,31.6
2019-01-09T06:00:54.771Z,30.6
2019-01-09T06:01:45.454Z,29.7
2019-01-09T06:02:36.470Z,32
2019-01-09T06:03:25.230Z,33.7
2019-01-09T06:04:15.883Z,34.7
2019-01-09T06:05:05.584Z,35.1
2019-01-09T06:05:54.518Z,35.1
2019-01-09T06:06:44.045Z,34.7
2019-01-09T06:07:35.781Z,34.1
2019-01-09T06:08:25.848Z,33.4
2019-01-09T06:09:15.653Z,32.4
2019-01-09T06:10:05.943Z,31.3
2019-01-09T06:10:55.498Z,30.3
2019-01-09T06:11:45.775Z,29.5
2019-01-09T06:12:34.723Z,28.9
2019-01-09T06:13:25.916Z,29.9
2019-01-09T06:14:16.300Z,32.2
2019-01-09T06:15:05.980Z,33.8
2019-01-09T06:15:55.742Z,34.7
2019-01-09T06:16:46.084Z,35.1
2019-01-09T06:17:35.862Z,35.1
2019-01-09T06:18:25.640Z,34.9
2019-01-09T06:19:15.442Z,34.3
2019-01-09T06:20:06.977Z,33.6
2019-01-09T06:20:55.895Z,32.7
2019-01-09T06:21:45.705Z,31.6
2019-01-09T06:22:37.048Z,30.6
2019-01-09T06:23:26.650Z,29.8
2019-01-09T06:24:16.544Z,29.1
2019-01-09T06:25:07.277Z,31.4
2019-01-09T06:25:56.764Z,33.3
2019-01-09T06:26:46.559Z,34.3
2019-01-09T06:27:37.434Z,34.8
2019-01-09T06:28:27.802Z,34.9
2019-01-09T06:29:16.637Z,34.5
2019-01-09T06:30:07.039Z,33.9
2019-01-09T06:30:57.401Z,33.2
2019-01-09T06:31:47.082Z,32.1
2019-01-09T06:32:37.387Z,31
2019-01-09T06:33:27.359Z,30
2019-01-09T06:34:16.757Z,29.3
2019-01-09T06:35:07.379Z,29.3
2019-01-09T06:35:57.039Z,31.9
2019-01-09T06:36:47.317Z,33.6
2019-01-09T06:37:38.266Z,34.6
2019-01-09T06:38:27.591Z,35
2019-01-09T06:39:17.007Z,35.1
2019-01-09T06:40:07.726Z,34.8
2019-01-09T06:40:56.426Z,34.3
2019-01-09T06:41:47.430Z,33.5
2019-01-09T06:42:37.013Z,32.6
2019-01-09T06:43:28.406Z,31.4
2019-01-09T06:44:17.938Z,30.4
2019-01-09T06:45:07.528Z,29.6
2019-01-09T06:45:58.073Z,31.9
2019-01-09T06:46:47.650Z,33.6
2019-01-09T06:47:38.372Z,34.6
2019-01-09T06:48:27.420Z,35
2019-01-09T06:49:18.490Z,35
2019-01-09T06:50:10.062Z,34.7
2019-01-09T06:50:58.700Z,34
2019-01-09T06:51:49.007Z,33.3
2019-01-09T06:52:38.422Z,32.3
2019-01-09T06:53:29.013Z,31.3
2019-01-09T06:54:18.749Z,30.3
2019-01-09T06:55:09.614Z,29.4
2019-01-09T06:55:59.509Z,28.9
2019-01-09T06:56:48.578Z,30.9
2019-01-09T06:57:38.483Z,32.9
2019-01-09T06:58:28.983Z,34.1
2019-01-09T06:59:17.769Z,34.8
2019-01-09T07:00:09.288Z,34.9
2019-01-09T07:00:57.983Z,34.7
2019-01-09T07:01:48.965Z,34.2
2019-01-09T07:02:38.882Z,33.5
2019-01-09T07:03:28.120Z,32.6
2019-01-09T07:04:18.785Z,31.4
2019-01-09T07:05:08.496Z,30.4
2019-01-09T07:05:57.790Z,29.6
2019-01-09T07:06:49.407Z,28.9
2019-01-09T07:07:45.875Z,28.8
2019-01-09T07:08:29.227Z,31.8
2019-01-09T07:09:20.456Z,33.3
2019-01-09T07:10:11.735Z,34.3
2019-01-09T07:10:59.392Z,34.9
2019-01-09T07:11:49.437Z,34.9
2019-01-09T07:12:40.090Z,34.8
2019-01-09T07:13:29.832Z,34.3
2019-01-09T07:14:20.472Z,33.5
2019-01-09T07:15:21.197Z,32.5
2019-01-09T07:16:00.045Z,31.1
2019-01-09T07:16:48.500Z,30.3
2019-01-09T07:17:38.989Z,30.7
2019-01-09T07:18:30.453Z,32.9
2019-01-09T07:19:20.277Z,34.3
2019-01-09T07:20:10.444Z,35
2019-01-09T07:21:00.402Z,35.2
2019-01-09T07:21:55.672Z,35.1
2019-01-09T07:22:39.616Z,34.7
2019-01-09T07:23:31.521Z,34.1
2019-01-09T07:24:20.649Z,33.3
2019-01-09T07:25:10.097Z,32.3
2019-01-09T07:26:00.672Z,31.1
2019-01-09T07:26:51.400Z,30.1
2019-01-09T07:27:39.973Z,29.4
2019-01-09T07:28:29.484Z,28.9
2019-01-09T07:29:20.714Z,30.6
2019-01-09T07:30:10.999Z,32.7
2019-01-09T07:31:00.714Z,34
2019-01-09T07:31:51.089Z,34.7
2019-01-09T07:32:40.611Z,34.8
2019-01-09T07:33:31.171Z,34.6
2019-01-09T07:34:20.656Z,34.1
2019-01-09T07:35:10.841Z,33.4
2019-01-09T07:36:00.519Z,32.5
2019-01-09T07:36:51.761Z,31.4
2019-01-09T07:37:50.571Z,30.3
2019-01-09T07:38:31.496Z,29.3
2019-01-09T07:39:21.008Z,28.8
2019-01-09T07:40:10.851Z,31
2019-01-09T07:41:01.241Z,32.9
2019-01-09T07:41:51.688Z,34.2
2019-01-09T07:42:41.660Z,34.9
2019-01-09T07:43:31.873Z,35
2019-01-09T07:44:21.708Z,34.9
2019-01-09T07:45:11.413Z,34.5
2019-01-09T07:46:01.807Z,33.8
2019-01-09T07:46:51.388Z,32.9
2019-01-09T07:47:41.871Z,31.9
2019-01-09T07:48:31.667Z,30.8
2019-01-09T07:49:21.675Z,29.9
2019-01-09T07:50:12.031Z,29.2
2019-01-09T07:51:02.373Z,31.6
2019-01-09T07:51:51.430Z,33.4
2019-01-09T07:52:41.930Z,34.5
2019-01-09T07:53:32.059Z,35.1
2019-01-09T07:54:23.074Z,35.3
2019-01-09T07:55:12.095Z,35.2
2019-01-09T07:56:01.585Z,34.9
2019-01-09T07:56:51.900Z,34.3
2019-01-09T07:57:41.252Z,33.4
2019-01-09T07:58:32.315Z,32.5
2019-01-09T07:59:22.953Z,31.4
2019-01-09T08:00:11.865Z,30.4
2019-01-09T08:01:02.826Z,29.6
2019-01-09T08:01:53.455Z,31.8
2019-01-09T08:02:43.227Z,33.5
2019-01-09T08:03:32.374Z,34.6
2019-01-09T08:04:22.957Z,34.9
2019-01-09T08:05:13.054Z,34.9
2019-01-09T08:06:03.444Z,34.5
2019-01-09T08:06:53.974Z,33.9
2019-01-09T08:07:42.681Z,33
2019-01-09T08:08:33.546Z,31.9
2019-01-09T08:09:22.802Z,30.8
2019-01-09T08:10:12.384Z,29.9
2019-01-09T08:11:03.984Z,29.1
2019-01-09T08:11:56.476Z,28.6
2019-01-09T08:12:43.274Z,28.3
2019-01-09T08:13:32.808Z,30.1
2019-01-09T08:14:24.571Z,32.3
2019-01-09T08:15:14.256Z,33.8
2019-01-09T08:16:04.348Z,34.6
2019-01-09T08:16:53.873Z,34.9
2019-01-09T08:17:43.129Z,34.9
2019-01-09T08:18:33.961Z,34.5
2019-01-09T08:19:24.246Z,33.8
2019-01-09T08:20:14.016Z,33
2019-01-09T08:21:13.736Z,31.9
2019-01-09T08:21:54.413Z,30.6
2019-01-09T08:22:44.463Z,30.2
2019-01-09T08:23:34.261Z,32.6
2019-01-09T08:24:24.770Z,34.1
2019-01-09T08:25:14.260Z,34.9
2019-01-09T08:26:04.953Z,35.3
2019-01-09T08:26:54.204Z,35.3
2019-01-09T08:27:44.611Z,35.1
2019-01-09T08:28:34.048Z,34.5
2019-01-09T08:29:24.913Z,33.8
2019-01-09T08:30:14.545Z,32.8
2019-01-09T08:31:04.495Z,31.7
2019-01-09T08:31:54.586Z,30.6
2019-01-09T08:32:44.964Z,29.8
2019-01-09T08:33:34.136Z,29.2
2019-01-09T08:34:25.044Z,29.4
2019-01-09T08:35:15.970Z,31.9
2019-01-09T08:36:05.737Z,33.6
2019-01-09T08:36:55.495Z,34.5
2019-01-09T08:37:45.857Z,34.9
2019-01-09T08:38:35.842Z,34.9
2019-01-09T08:39:26.096Z,34.6
2019-01-09T08:40:14.873Z,34.1
2019-01-09T08:41:05.219Z,33.3
2019-01-09T08:41:55.257Z,32.3
2019-01-09T08:42:45.937Z,31.1
2019-01-09T08:43:35.689Z,30.1
2019-01-09T08:44:25.469Z,29.4
2019-01-09T08:45:15.427Z,31.9
2019-01-09T08:46:05.509Z,33.6
2019-01-09T08:46:56.151Z,34.6
2019-01-09T08:47:46.729Z,35.1
2019-01-09T08:48:36.210Z,35.1
2019-01-09T08:49:26.564Z,34.9
2019-01-09T08:50:15.284Z,34.3
2019-01-09T08:51:05.237Z,33.6
2019-01-09T08:51:56.167Z,32.6
2019-01-09T08:52:46.076Z,31.4
2019-01-09T08:53:34.889Z,30.4
2019-01-09T08:54:26.979Z,29.6
2019-01-09T08:55:17.481Z,29.5
2019-01-09T08:56:05.886Z,32.1
2019-01-09T08:56:56.478Z,33.6
2019-01-09T08:57:46.546Z,34.6
2019-01-09T08:58:37.264Z,35
2019-01-09T08:59:27.023Z,35.1
2019-01-09T09:00:17.101Z,34.8
2019-01-09T09:01:07.361Z,34.2
2019-01-09T09:17:03.220Z,30.8
2019-01-09T09:17:53.072Z,33.1
2019-01-09T09:18:43.280Z,34.3
2019-01-09T09:19:33.531Z,34.8
2019-01-09T09:20:23.385Z,34.9
2019-01-09T09:21:14.175Z,34.8
2019-01-09T09:22:03.139Z,34.3
2019-01-09T09:22:53.439Z,33.5
2019-01-09T09:23:43.482Z,32.4
2019-01-09T09:24:33.153Z,31.3
2019-01-09T09:25:22.823Z,30.2
2019-01-09T09:26:13.919Z,29.4
2019-01-09T09:27:03.471Z,30.3
2019-01-09T09:27:52.642Z,32.5
2019-01-09T09:28:43.909Z,33.9
2019-01-09T09:29:36.424Z,34.8
2019-01-09T09:30:24.256Z,34.9
2019-01-09T09:31:14.054Z,34.9
2019-01-09T09:32:04.451Z,34.6
2019-01-09T09:32:54.262Z,33.9
2019-01-09T09:33:42.889Z,33.1
2019-01-09T09:34:34.008Z,32.1
2019-01-09T09:35:25.099Z,30.9
2019-01-09T09:36:14.414Z,29.9
2019-01-09T09:37:04.488Z,29.2
2019-01-09T09:37:55.026Z,29.6
2019-01-09T09:38:44.837Z,32.1
2019-01-09T09:39:35.152Z,33.6
2019-01-09T09:40:24.321Z,34.5
2019-01-09T09:41:15.210Z,34.8
2019-01-09T09:42:04.188Z,34.8
2019-01-09T09:42:54.336Z,34.5
2019-01-09T09:43:44.596Z,33.8
2019-01-09T09:44:35.258Z,32.9
2019-01-09T09:45:24.678Z,31.8
2019-01-09T09:46:15.325Z,30.7
2019-01-09T09:47:05.453Z,29.7
2019-01-09T09:47:55.148Z,29.8
2019-01-09T09:48:45.210Z,32.2
2019-01-09T09:49:35.791Z,33.7
2019-01-09T09:50:25.601Z,34.6
2019-01-09T09:51:14.638Z,34.9
2019-01-09T09:52:05.217Z,35
2019-01-09T09:52:55.188Z,34.7
2019-01-09T09:53:44.762Z,34.1
2019-01-09T09:54:35.950Z,33.3
2019-01-09T09:55:25.085Z,32.2
2019-01-09T09:56:15.422Z,31
2019-01-09T09:57:05.805Z,29.9
2019-01-09T09:58:06.158Z,29.1
2019-01-09T09:58:45.657Z,29.8
2019-01-09T09:59:36.200Z,31.7
2019-01-09T10:00:25.787Z,33.3
2019-01-09T10:01:16.009Z,34.2
2019-01-09T10:02:05.245Z,34.4
2019-01-09T10:02:56.452Z,34.2
2019-01-09T10:03:46.035Z,33.6
2019-01-09T10:04:37.043Z,32.8
2019-01-09T10:05:26.989Z,31.5
2019-01-09T10:06:15.825Z,30.3
2019-01-09T10:07:06.381Z,29.3
2019-01-09T10:07:55.930Z,28.9
2019-01-09T10:08:47.361Z,31.6
2019-01-09T10:09:36.869Z,33.4
2019-01-09T10:10:27.472Z,34.4
2019-01-09T10:11:16.344Z,34.9
2019-01-09T10:12:06.709Z,35
2019-01-09T10:12:56.537Z,34.8
2019-01-09T10:13:46.327Z,34.2
2019-01-09T10:14:36.899Z,33.4
2019-01-09T10:15:27.518Z,32.4
2019-01-09T10:16:16.821Z,31.2
2019-01-09T10:17:06.867Z,30.1
2019-01-09T10:17:56.847Z,31.2
2019-01-09T10:18:46.466Z,33.1
2019-01-09T10:19:36.940Z,34.3
2019-01-09T10:20:27.584Z,34.8
2019-01-09T10:21:16.891Z,34.8
2019-01-09T10:22:08.016Z,34.4
2019-01-09T10:22:57.806Z,33.8
2019-01-09T10:23:47.191Z,32.9
2019-01-09T10:24:37.423Z,31.8
2019-01-09T10:25:27.508Z,30.6
2019-01-09T10:26:16.699Z,29.6
2019-01-09T10:27:07.553Z,28.9
2019-01-09T10:27:58.576Z,28.4
2019-01-09T10:28:47.283Z,30.3
2019-01-09T10:29:37.635Z,32.4
2019-01-09T10:30:27.848Z,33.8
2019-01-09T10:31:17.251Z,34.6
2019-01-09T10:32:08.149Z,34.8
2019-01-09T10:32:57.480Z,34.8
2019-01-09T10:33:47.693Z,34.3
2019-01-09T10:34:38.610Z,33.7
2019-01-09T10:35:28.450Z,32.8
2019-01-09T10:36:19.328Z,31.6
2019-01-09T10:37:07.440Z,30.4
2019-01-09T10:37:59.015Z,31.6
2019-01-09T10:38:50.657Z,33.4
2019-01-09T10:39:38.686Z,34.6
2019-01-09T10:40:37.968Z,35.1
2019-01-09T10:41:18.420Z,35.1
2019-01-09T10:42:10.435Z,34.9
2019-01-09T10:42:58.710Z,34.4
2019-01-09T10:43:49.125Z,33.6
2019-01-09T10:44:40.780Z,32.5
2019-01-09T10:45:27.937Z,31.2
2019-01-09T10:46:19.045Z,30.1
2019-01-09T10:47:07.762Z,29.3
2019-01-09T10:47:58.898Z,30.9
2019-01-09T10:48:49.740Z,32.9
2019-01-09T10:49:39.184Z,34.1
2019-01-09T10:50:29.092Z,34.8
2019-01-09T10:51:18.722Z,34.9
2019-01-09T10:52:09.320Z,34.8
2019-01-09T10:52:59.052Z,34.2
2019-01-09T10:53:49.779Z,33.4
2019-01-09T10:54:39.642Z,32.4
2019-01-09T10:55:30.514Z,31.2
2019-01-09T10:56:18.900Z,30.1
2019-01-09T10:57:09.481Z,29.3
2019-01-09T10:57:58.974Z,31.4
2019-01-09T10:58:50.139Z,33.3
2019-01-09T10:59:39.901Z,34.4
2019-01-09T11:00:29.981Z,34.9
2019-01-09T11:01:19.719Z,35
2019-01-09T11:02:10.408Z,34.9
2019-01-09T11:03:00.775Z,34.3
2019-01-09T11:03:49.889Z,33.6
2019-01-09T11:04:40.281Z,32.6
2019-01-09T11:05:30.124Z,31.4
2019-01-09T11:06:23.678Z,30.4
2019-01-09T11:07:10.763Z,29.5
2019-01-09T11:08:01.126Z,28.9
2019-01-09T11:08:56.500Z,31.6
2019-01-09T11:09:40.584Z,33.4
2019-01-09T11:10:30.618Z,34.4
2019-01-09T11:11:19.823Z,34.9
2019-01-09T11:12:11.390Z,34.9
2019-01-09T11:13:01.366Z,34.6
2019-01-09T11:13:50.837Z,34.1
2019-01-09T11:14:40.895Z,33.3
2019-01-09T11:15:31.247Z,32.3
2019-01-09T11:16:20.163Z,31.2
2019-01-09T11:17:11.171Z,30.2
2019-01-09T11:18:01.405Z,29.4
2019-01-09T11:18:51.390Z,31.8
2019-01-09T11:19:41.280Z,33.4
2019-01-09T11:20:30.450Z,34.5
2019-01-09T11:21:21.892Z,34.9
2019-01-09T11:22:11.822Z,35
2019-01-09T11:23:01.207Z,34.8
2019-01-09T11:23:51.040Z,34.3
2019-01-09T11:24:41.378Z,33.5
2019-01-09T11:25:32.540Z,32.5
2019-01-09T11:26:22.678Z,31.3
2019-01-09T11:27:12.505Z,30.3
2019-01-09T11:28:01.920Z,29.4
2019-01-09T11:28:52.879Z,28.9
2019-01-09T11:29:42.505Z,29.9
2019-01-09T11:30:32.946Z,32.2
2019-01-09T11:31:22.265Z,33.6
2019-01-09T11:32:15.439Z,34.6
2019-01-09T11:33:00.916Z,34.8
2019-01-09T11:33:50.826Z,34.8
2019-01-09T11:34:42.347Z,34.5
2019-01-09T11:35:33.224Z,33.8
2019-01-09T11:36:22.891Z,32.9
2019-01-09T11:37:12.931Z,31.8
2019-01-09T11:38:02.746Z,30.7
2019-01-09T11:39:00.663Z,29.8
2019-01-09T11:39:42.094Z,31.5
2019-01-09T11:40:32.706Z,33.1
2019-01-09T11:41:21.869Z,34.3
2019-01-09T11:42:12.759Z,35
2019-01-09T11:43:05.469Z,35.1
2019-01-09T11:43:53.116Z,34.9
2019-01-09T11:44:42.774Z,34.4
2019-01-09T11:45:32.963Z,33.8
2019-01-09T11:46:23.099Z,32.9
2019-01-09T11:47:13.630Z,31.8
2019-01-09T11:48:02.464Z,30.7
2019-01-09T11:48:52.073Z,29.8
2019-01-09T11:49:43.874Z,29.3
2019-01-09T11:50:33.940Z,31.9
2019-01-09T11:51:22.813Z,33.5
2019-01-09T11:52:13.383Z,34.5
2019-01-09T11:53:02.646Z,34.9
2019-01-09T11:53:53.760Z,34.9
2019-01-09T11:54:46.269Z,34.6
2019-01-09T11:55:34.093Z,33.9
2019-01-09T11:56:23.688Z,33.1
2019-01-09T11:57:13.728Z,32
2019-01-09T11:58:04.070Z,30.8
2019-01-09T11:58:53.922Z,29.8
2019-01-09T11:59:43.718Z,29.1
2019-01-09T12:00:33.690Z,28.6
2019-01-09T12:01:23.553Z,28.3
2019-01-09T12:02:22.769Z,31.1
2019-01-09T12:03:03.668Z,33.2
2019-01-09T12:03:55.032Z,34.1
2019-01-09T12:04:43.850Z,34.7
2019-01-09T12:05:33.989Z,34.9
2019-01-09T12:06:24.469Z,34.7
2019-01-09T12:07:14.112Z,34.1
2019-01-09T12:08:04.740Z,33.4
2019-01-09T12:09:06.399Z,32.4
2019-01-09T12:09:44.554Z,31
2019-01-09T12:10:39.495Z,30.2
2019-01-09T12:11:24.809Z,29.4
2019-01-09T12:12:15.036Z,31.8
2019-01-09T12:13:04.805Z,33.5
2019-01-09T12:13:56.227Z,34.5